Aérodrome :
LOGIN :

S'inscrire | Disclaimer

   EN    FR    IT 

 










Légende :    VFR   VFR Marginal   IFR   IFR Intensif   IFR Très Intensif
Visi : 
Plafond : 
>= 8 km
>= 3000ft
5 à 8 km
1000 à 3000 ft
1500m à 5 km
500 à 1000 ft
800 à 1500m
200 à 500 ft
< 800m
< 200 ft
Symboles :   Orages  Brouillard  Fortes neiges  Fortes précipitations  Vent > 20 kt
SIGMETs :   Divers  Orages  Givrage  Turbulence  Onde Orograph.  Cendres Volcan.







- Altitude de l'aérodrome : 13 ft
- Code IATA : OST


EBOS - Oostend bruges Int.

DERNIER METAR :
  • 231420Z 19007KT 4500 -DZRA SCT003 BKN006 13/12 Q1019 TEMPO 2500 DZRA BKN004

METARs EXPIRÉS :
  • 231350Z 20008KT 4000 -DZRA SCT003 BKN006 13/11 Q1019 TEMPO 2500 DZRA BKN004
  • 231320Z 20009KT 2500 DZRA SCT003 BKN007 13/12 Q1019 TEMPO 1400 DZRA BKN003
  • 231250Z 20010KT 5000 -RADZ SCT007 BKN013 13/11 Q1019 BECMG 4000 -RADZ BKN009
  • 231220Z 24010KT 9999 FEW016 BKN045 14/11 Q1019 BECMG BKN009
  • 231150Z 25011KT 9999 FEW016 BKN045 15/11 Q1019 BECMG BKN014

TAF TAF EBOS
Valide du 23 à 12h jusqu'au 24 à 18h UTC


231110Z 2312/2418 21010KT 9999 SCT014 BKN018
BECMG 2312/2314 4500 -RADZ SCT007 BKN008
TEMPO 2314/2409 2500 DZRA BKN004
TEMPO 2322/2403 7000 NSW FEW012 SCT040
BECMG 2410/2412 23015G25KT 9999 SCT015 BKN025
Pas de NOTAMs connus pour ce terrain.



MET'MAP, la Météo Aéronautique d'un coup d'oeil ! - Copyright ORBIFLY Décembre 2007 - Disclaimer

ORBIFLY MET'MAP TEAM :

Programmation & Développement : Alexandra Zaïnal
Conception & Développement : Baudouin d'Aumeries
Co-Programmation & Développement : Marc-Olivier Méhu
Soutien technique & logistique : Manuel Goepfert

Contact : metmap@orbifly.com




SOURCES & CREDITS :

   NOAA